sensor_id;sensor_type;location;lat;lon;timestamp;pressure;altitude;pressure_sealevel;temperature;humidity
63773;BME280;49919;53.612;55.898;2022-07-12T00:00:17;100116.13;;;22.56;70.47
63773;BME280;49919;53.612;55.898;2022-07-12T00:01:48;100127.56;;;22.53;70.55
63773;BME280;49919;53.612;55.898;2022-07-12T00:03:19;100125.94;;;22.52;70.56
63773;BME280;49919;53.612;55.898;2022-07-12T00:04:49;100122.75;;;22.50;70.74
63773;BME280;49919;53.612;55.898;2022-07-12T00:06:20;100125.25;;;22.47;70.84
63773;BME280;49919;53.612;55.898;2022-07-12T00:07:51;100122.34;;;22.43;71.06
63773;BME280;49919;53.612;55.898;2022-07-12T00:09:21;100125.63;;;22.40;71.01
63773;BME280;49919;53.612;55.898;2022-07-12T00:10:52;100135.16;;;22.38;70.96
63773;BME280;49919;53.612;55.898;2022-07-12T00:12:23;100135.16;;;22.38;71.09
63773;BME280;49919;53.612;55.898;2022-07-12T00:13:53;100133.34;;;22.33;71.10
63773;BME280;49919;53.612;55.898;2022-07-12T00:15:24;100135.03;;;22.29;71.18
63773;BME280;49919;53.612;55.898;2022-07-12T00:16:55;100137.84;;;22.24;71.00
63773;BME280;49919;53.612;55.898;2022-07-12T00:18:25;100136.81;;;22.20;71.25
63773;BME280;49919;53.612;55.898;2022-07-12T00:19:56;100141.78;;;22.13;71.31
63773;BME280;49919;53.612;55.898;2022-07-12T00:21:27;100144.28;;;22.09;71.29
63773;BME280;49919;53.612;55.898;2022-07-12T00:22:58;100150.50;;;22.10;71.46
63773;BME280;49919;53.612;55.898;2022-07-12T00:24:28;100151.31;;;22.10;71.35
63773;BME280;49919;53.612;55.898;2022-07-12T00:25:59;100151.00;;;22.12;71.25
63773;BME280;49919;53.612;55.898;2022-07-12T00:27:34;100144.19;;;22.14;71.21
63773;BME280;49919;53.612;55.898;2022-07-12T00:29:05;100141.19;;;22.16;71.13
63773;BME280;49919;53.612;55.898;2022-07-12T00:30:36;100152.75;;;22.21;71.01
63773;BME280;49919;53.612;55.898;2022-07-12T00:32:07;100146.75;;;22.25;70.75
63773;BME280;49919;53.612;55.898;2022-07-12T00:33:39;100147.47;;;22.30;70.61
63773;BME280;49919;53.612;55.898;2022-07-12T00:35:10;100149.00;;;22.36;70.21
63773;BME280;49919;53.612;55.898;2022-07-12T00:36:41;100150.00;;;22.40;69.99
63773;BME280;49919;53.612;55.898;2022-07-12T00:38:12;100158.66;;;22.42;69.82
63773;BME280;49919;53.612;55.898;2022-07-12T00:39:42;100154.56;;;22.45;69.81
63773;BME280;49919;53.612;55.898;2022-07-12T00:41:13;100159.69;;;22.46;69.65
63773;BME280;49919;53.612;55.898;2022-07-12T00:42:44;100155.28;;;22.50;69.37
63773;BME280;49919;53.612;55.898;2022-07-12T00:44:14;100156.78;;;22.56;69.28
63773;BME280;49919;53.612;55.898;2022-07-12T00:45:45;100158.09;;;22.59;69.15
63773;BME280;49919;53.612;55.898;2022-07-12T00:47:25;100156.69;;;22.62;68.87
63773;BME280;49919;53.612;55.898;2022-07-12T00:48:58;100157.72;;;22.66;68.70
63773;BME280;49919;53.612;55.898;2022-07-12T00:50:29;100150.09;;;22.68;68.48
63773;BME280;49919;53.612;55.898;2022-07-12T00:52:00;100151.91;;;22.72;68.33
63773;BME280;49919;53.612;55.898;2022-07-12T00:53:30;100150.19;;;22.76;68.01
63773;BME280;49919;53.612;55.898;2022-07-12T00:55:01;100157.75;;;22.79;67.80
63773;BME280;49919;53.612;55.898;2022-07-12T00:56:33;100147.13;;;22.83;67.72
63773;BME280;49919;53.612;55.898;2022-07-12T00:58:04;100146.53;;;22.86;67.37
63773;BME280;49919;53.612;55.898;2022-07-12T00:59:35;100156.25;;;22.87;67.21
63773;BME280;49919;53.612;55.898;2022-07-12T01:01:05;100147.63;;;22.85;67.02
63773;BME280;49919;53.612;55.898;2022-07-12T01:02:36;100151.13;;;22.85;66.98
63773;BME280;49919;53.612;55.898;2022-07-12T01:04:08;100154.75;;;22.81;66.90
63773;BME280;49919;53.612;55.898;2022-07-12T01:05:39;100153.19;;;22.75;67.10
63773;BME280;49919;53.612;55.898;2022-07-12T01:07:09;100154.41;;;22.69;67.21
63773;BME280;49919;53.612;55.898;2022-07-12T01:08:40;100150.59;;;22.70;67.28
63773;BME280;49919;53.612;55.898;2022-07-12T01:10:11;100158.94;;;22.73;67.25
63773;BME280;49919;53.612;55.898;2022-07-12T01:11:42;100158.31;;;22.76;67.08
63773;BME280;49919;53.612;55.898;2022-07-12T01:13:13;100159.66;;;22.79;67.12
63773;BME280;49919;53.612;55.898;2022-07-12T01:14:44;100156.56;;;22.85;67.01
63773;BME280;49919;53.612;55.898;2022-07-12T01:16:15;100162.50;;;22.87;66.83
63773;BME280;49919;53.612;55.898;2022-07-12T01:17:46;100162.19;;;22.89;66.92
63773;BME280;49919;53.612;55.898;2022-07-12T01:19:19;100169.09;;;22.95;66.84
63773;BME280;49919;53.612;55.898;2022-07-12T01:20:50;100168.22;;;23.00;66.72
63773;BME280;49919;53.612;55.898;2022-07-12T01:22:25;100174.06;;;23.07;66.50
63773;BME280;49919;53.612;55.898;2022-07-12T01:23:57;100180.69;;;23.14;66.36
63773;BME280;49919;53.612;55.898;2022-07-12T01:25:29;100177.78;;;23.24;66.23
63773;BME280;49919;53.612;55.898;2022-07-12T01:27:00;100184.09;;;23.34;65.96
63773;BME280;49919;53.612;55.898;2022-07-12T01:28:32;100183.38;;;23.42;65.74
63773;BME280;49919;53.612;55.898;2022-07-12T01:30:03;100181.56;;;23.51;65.72
63773;BME280;49919;53.612;55.898;2022-07-12T01:31:34;100184.41;;;23.60;65.47
63773;BME280;49919;53.612;55.898;2022-07-12T01:33:06;100187.50;;;23.67;65.31
63773;BME280;49919;53.612;55.898;2022-07-12T01:34:37;100187.09;;;23.73;65.24
63773;BME280;49919;53.612;55.898;2022-07-12T01:36:08;100186.50;;;23.76;64.99
63773;BME280;49919;53.612;55.898;2022-07-12T01:37:41;100185.88;;;23.79;64.86
63773;BME280;49919;53.612;55.898;2022-07-12T01:39:12;100183.84;;;23.85;64.69
63773;BME280;49919;53.612;55.898;2022-07-12T01:40:42;100183.13;;;23.93;63.95
63773;BME280;49919;53.612;55.898;2022-07-12T01:42:13;100176.19;;;24.01;63.53
63773;BME280;49919;53.612;55.898;2022-07-12T01:43:44;100184.38;;;24.09;63.21
63773;BME280;49919;53.612;55.898;2022-07-12T01:45:15;100188.59;;;24.15;62.74
63773;BME280;49919;53.612;55.898;2022-07-12T01:46:45;100186.25;;;24.22;62.26
63773;BME280;49919;53.612;55.898;2022-07-12T01:48:16;100182.63;;;24.27;62.03
63773;BME280;49919;53.612;55.898;2022-07-12T01:49:50;100188.75;;;24.33;61.56
63773;BME280;49919;53.612;55.898;2022-07-12T01:51:20;100189.44;;;24.38;61.48
63773;BME280;49919;53.612;55.898;2022-07-12T01:52:51;100189.31;;;24.43;61.03
63773;BME280;49919;53.612;55.898;2022-07-12T01:54:23;100194.59;;;24.48;60.78
63773;BME280;49919;53.612;55.898;2022-07-12T01:55:54;100195.28;;;24.54;60.73
63773;BME280;49919;53.612;55.898;2022-07-12T01:57:25;100192.13;;;24.60;60.21
63773;BME280;49919;53.612;55.898;2022-07-12T01:58:56;100190.41;;;24.65;60.14
63773;BME280;49919;53.612;55.898;2022-07-12T02:00:26;100188.34;;;24.70;60.20
63773;BME280;49919;53.612;55.898;2022-07-12T02:01:57;100201.50;;;24.77;59.68
63773;BME280;49919;53.612;55.898;2022-07-12T02:03:28;100195.31;;;24.85;59.44
63773;BME280;49919;53.612;55.898;2022-07-12T02:04:59;100201.59;;;24.94;59.26
63773;BME280;49919;53.612;55.898;2022-07-12T02:06:30;100202.78;;;25.02;58.67
63773;BME280;49919;53.612;55.898;2022-07-12T02:08:01;100199.63;;;25.08;58.37
63773;BME280;49919;53.612;55.898;2022-07-12T02:09:32;100195.63;;;25.14;58.21
63773;BME280;49919;53.612;55.898;2022-07-12T02:11:02;100202.53;;;25.20;58.08
63773;BME280;49919;53.612;55.898;2022-07-12T02:12:33;100202.41;;;25.25;57.75
63773;BME280;49919;53.612;55.898;2022-07-12T02:14:04;100203.06;;;25.31;57.55
63773;BME280;49919;53.612;55.898;2022-07-12T02:15:35;100206.09;;;25.38;57.47
63773;BME280;49919;53.612;55.898;2022-07-12T02:17:06;100201.34;;;25.44;57.15
63773;BME280;49919;53.612;55.898;2022-07-12T02:18:36;100196.06;;;25.47;56.92
63773;BME280;49919;53.612;55.898;2022-07-12T02:20:08;100199.44;;;25.53;56.77
63773;BME280;49919;53.612;55.898;2022-07-12T02:21:39;100197.66;;;25.57;56.48
63773;BME280;49919;53.612;55.898;2022-07-12T02:23:10;100201.69;;;25.59;56.62
63773;BME280;49919;53.612;55.898;2022-07-12T02:24:41;100202.78;;;25.58;56.29
63773;BME280;49919;53.612;55.898;2022-07-12T02:26:12;100200.88;;;25.59;56.24
63773;BME280;49919;53.612;55.898;2022-07-12T02:27:42;100199.16;;;25.63;56.38
63773;BME280;49919;53.612;55.898;2022-07-12T02:29:14;100195.19;;;25.69;56.24
63773;BME280;49919;53.612;55.898;2022-07-12T02:30:45;100191.19;;;25.75;56.31
63773;BME280;49919;53.612;55.898;2022-07-12T02:32:15;100196.78;;;25.79;56.03
63773;BME280;49919;53.612;55.898;2022-07-12T02:33:46;100193.09;;;25.83;55.90
63773;BME280;49919;53.612;55.898;2022-07-12T02:35:17;100194.88;;;25.88;55.92
63773;BME280;49919;53.612;55.898;2022-07-12T02:36:48;100196.66;;;25.92;55.85
63773;BME280;49919;53.612;55.898;2022-07-12T02:38:18;100199.69;;;26.00;55.70
63773;BME280;49919;53.612;55.898;2022-07-12T02:39:50;100191.84;;;26.07;55.65
63773;BME280;49919;53.612;55.898;2022-07-12T02:41:21;100192.81;;;26.11;55.74
63773;BME280;49919;53.612;55.898;2022-07-12T02:42:52;100197.47;;;26.19;55.38
63773;BME280;49919;53.612;55.898;2022-07-12T02:44:22;100198.88;;;26.25;55.44
63773;BME280;49919;53.612;55.898;2022-07-12T02:45:54;100205.81;;;26.31;55.08
63773;BME280;49919;53.612;55.898;2022-07-12T02:47:26;100203.25;;;26.35;55.17
63773;BME280;49919;53.612;55.898;2022-07-12T02:48:57;100204.22;;;26.39;54.95
63773;BME280;49919;53.612;55.898;2022-07-12T02:50:28;100198.56;;;26.44;54.61
63773;BME280;49919;53.612;55.898;2022-07-12T02:51:59;100208.03;;;26.46;54.72
63773;BME280;49919;53.612;55.898;2022-07-12T02:53:30;100206.09;;;26.47;54.80
63773;BME280;49919;53.612;55.898;2022-07-12T02:55:01;100202.56;;;26.46;54.65
63773;BME280;49919;53.612;55.898;2022-07-12T02:56:33;100205.63;;;26.53;54.64
63773;BME280;49919;53.612;55.898;2022-07-12T02:58:04;100204.34;;;26.59;54.42
63773;BME280;49919;53.612;55.898;2022-07-12T02:59:38;100212.81;;;26.67;54.45
63773;BME280;49919;53.612;55.898;2022-07-12T03:01:08;100207.19;;;26.72;54.24
63773;BME280;49919;53.612;55.898;2022-07-12T03:02:39;100211.66;;;26.76;54.30
63773;BME280;49919;53.612;55.898;2022-07-12T03:04:10;100212.44;;;26.85;54.17
63773;BME280;49919;53.612;55.898;2022-07-12T03:05:41;100208.88;;;26.93;53.86
63773;BME280;49919;53.612;55.898;2022-07-12T03:07:12;100208.41;;;27.00;53.85
63773;BME280;49919;53.612;55.898;2022-07-12T03:08:42;100206.91;;;27.11;53.47
63773;BME280;49919;53.612;55.898;2022-07-12T03:10:13;100211.56;;;27.19;53.39
63773;BME280;49919;53.612;55.898;2022-07-12T03:11:44;100207.50;;;27.25;53.47
63773;BME280;49919;53.612;55.898;2022-07-12T03:13:14;100211.00;;;27.35;53.03
63773;BME280;49919;53.612;55.898;2022-07-12T03:14:45;100210.94;;;27.43;52.86
63773;BME280;49919;53.612;55.898;2022-07-12T03:16:16;100209.97;;;27.48;52.74
63773;BME280;49919;53.612;55.898;2022-07-12T03:17:47;100209.09;;;27.56;52.31
63773;BME280;49919;53.612;55.898;2022-07-12T03:19:18;100218.28;;;27.60;52.11
63773;BME280;49919;53.612;55.898;2022-07-12T03:20:49;100215.34;;;27.65;51.80
63773;BME280;49919;53.612;55.898;2022-07-12T03:22:19;100219.22;;;27.64;51.88
63773;BME280;49919;53.612;55.898;2022-07-12T03:23:50;100215.19;;;27.70;51.62
63773;BME280;49919;53.612;55.898;2022-07-12T03:25:21;100218.34;;;27.72;51.64
63773;BME280;49919;53.612;55.898;2022-07-12T03:26:52;100226.34;;;27.77;51.38
63773;BME280;49919;53.612;55.898;2022-07-12T03:28:22;100217.31;;;27.85;51.36
63773;BME280;49919;53.612;55.898;2022-07-12T03:29:53;100219.06;;;27.90;51.10
63773;BME280;49919;53.612;55.898;2022-07-12T03:31:24;100210.63;;;27.95;50.94
63773;BME280;49919;53.612;55.898;2022-07-12T03:32:54;100217.38;;;27.97;50.74
63773;BME280;49919;53.612;55.898;2022-07-12T03:34:25;100224.72;;;28.06;50.68
63773;BME280;49919;53.612;55.898;2022-07-12T03:35:56;100223.97;;;28.17;50.20
63773;BME280;49919;53.612;55.898;2022-07-12T03:37:27;100228.94;;;28.24;49.89
63773;BME280;49919;53.612;55.898;2022-07-12T03:38:57;100220.19;;;28.30;49.68
63773;BME280;49919;53.612;55.898;2022-07-12T03:40:30;100218.41;;;28.35;49.87
63773;BME280;49919;53.612;55.898;2022-07-12T03:42:02;100221.84;;;28.44;49.33
63773;BME280;49919;53.612;55.898;2022-07-12T03:43:32;100221.63;;;28.49;49.41
63773;BME280;49919;53.612;55.898;2022-07-12T03:45:03;100223.03;;;28.55;49.25
63773;BME280;49919;53.612;55.898;2022-07-12T03:46:34;100216.19;;;28.61;48.58
63773;BME280;49919;53.612;55.898;2022-07-12T03:48:05;100221.34;;;28.62;48.33
63773;BME280;49919;53.612;55.898;2022-07-12T03:49:35;100216.44;;;28.68;47.90
63773;BME280;49919;53.612;55.898;2022-07-12T03:51:06;100226.38;;;28.73;47.33
63773;BME280;49919;53.612;55.898;2022-07-12T03:52:37;100220.91;;;28.73;47.34
63773;BME280;49919;53.612;55.898;2022-07-12T03:54:08;100216.50;;;28.80;47.50
63773;BME280;49919;53.612;55.898;2022-07-12T03:55:39;100220.16;;;28.84;47.02
63773;BME280;49919;53.612;55.898;2022-07-12T03:57:09;100221.44;;;28.87;46.89
63773;BME280;49919;53.612;55.898;2022-07-12T03:58:46;100220.41;;;28.91;46.93
63773;BME280;49919;53.612;55.898;2022-07-12T04:00:17;100216.66;;;28.96;46.66
63773;BME280;49919;53.612;55.898;2022-07-12T04:01:47;100216.88;;;29.03;46.41
63773;BME280;49919;53.612;55.898;2022-07-12T04:03:18;100221.59;;;29.15;46.44
63773;BME280;49919;53.612;55.898;2022-07-12T04:04:49;100221.47;;;29.23;45.98
63773;BME280;49919;53.612;55.898;2022-07-12T04:06:19;100220.09;;;29.29;46.01
63773;BME280;49919;53.612;55.898;2022-07-12T04:07:50;100220.34;;;29.37;45.11
63773;BME280;49919;53.612;55.898;2022-07-12T04:09:21;100220.81;;;29.39;45.24
63773;BME280;49919;53.612;55.898;2022-07-12T04:10:52;100220.00;;;29.38;45.41
63773;BME280;49919;53.612;55.898;2022-07-12T04:12:22;100219.00;;;29.43;45.23
63773;BME280;49919;53.612;55.898;2022-07-12T04:13:53;100219.91;;;29.47;44.91
63773;BME280;49919;53.612;55.898;2022-07-12T04:15:24;100231.56;;;29.44;45.28
63773;BME280;49919;53.612;55.898;2022-07-12T04:16:55;100227.22;;;29.43;44.89
63773;BME280;49919;53.612;55.898;2022-07-12T04:18:25;100226.19;;;29.47;44.86
63773;BME280;49919;53.612;55.898;2022-07-12T04:19:56;100226.53;;;29.58;45.15
63773;BME280;49919;53.612;55.898;2022-07-12T04:21:30;100226.97;;;29.72;44.57
63773;BME280;49919;53.612;55.898;2022-07-12T04:23:00;100229.59;;;29.81;44.81
63773;BME280;49919;53.612;55.898;2022-07-12T04:24:31;100221.25;;;29.77;44.20
63773;BME280;49919;53.612;55.898;2022-07-12T04:26:03;100227.75;;;29.85;44.38
63773;BME280;49919;53.612;55.898;2022-07-12T04:27:34;100223.59;;;29.91;44.47
63773;BME280;49919;53.612;55.898;2022-07-12T04:29:04;100225.56;;;30.03;43.97
63773;BME280;49919;53.612;55.898;2022-07-12T04:30:35;100223.03;;;29.97;43.86
63773;BME280;49919;53.612;55.898;2022-07-12T04:32:06;100221.69;;;30.04;43.77
63773;BME280;49919;53.612;55.898;2022-07-12T04:33:36;100217.97;;;30.12;43.96
63773;BME280;49919;53.612;55.898;2022-07-12T04:35:07;100226.19;;;30.24;43.78
63773;BME280;49919;53.612;55.898;2022-07-12T04:36:38;100221.53;;;30.40;43.60
63773;BME280;49919;53.612;55.898;2022-07-12T04:38:09;100224.59;;;30.51;43.54
63773;BME280;49919;53.612;55.898;2022-07-12T04:39:39;100217.97;;;30.52;43.37
63773;BME280;49919;53.612;55.898;2022-07-12T04:41:10;100217.72;;;30.57;42.93
63773;BME280;49919;53.612;55.898;2022-07-12T04:42:41;100220.91;;;30.59;42.95
63773;BME280;49919;53.612;55.898;2022-07-12T04:44:11;100221.34;;;30.61;43.01
63773;BME280;49919;53.612;55.898;2022-07-12T04:45:42;100227.75;;;30.65;42.72
63773;BME280;49919;53.612;55.898;2022-07-12T04:47:16;100223.59;;;30.71;42.92
63773;BME280;49919;53.612;55.898;2022-07-12T04:48:47;100227.59;;;30.74;42.76
63773;BME280;49919;53.612;55.898;2022-07-12T04:50:17;100232.34;;;30.77;42.62
63773;BME280;49919;53.612;55.898;2022-07-12T04:51:48;100230.06;;;30.79;42.41
63773;BME280;49919;53.612;55.898;2022-07-12T04:53:19;100228.91;;;30.80;42.65
63773;BME280;49919;53.612;55.898;2022-07-12T04:54:49;100230.34;;;30.89;42.95
63773;BME280;49919;53.612;55.898;2022-07-12T04:56:20;100232.91;;;30.98;42.33
63773;BME280;49919;53.612;55.898;2022-07-12T04:57:51;100231.06;;;31.02;42.54
63773;BME280;49919;53.612;55.898;2022-07-12T04:59:21;100234.25;;;31.04;42.46
63773;BME280;49919;53.612;55.898;2022-07-12T05:00:52;100233.91;;;31.06;42.76
63773;BME280;49919;53.612;55.898;2022-07-12T05:02:23;100236.50;;;31.14;42.58
63773;BME280;49919;53.612;55.898;2022-07-12T05:03:54;100236.50;;;31.14;42.46
63773;BME280;49919;53.612;55.898;2022-07-12T05:05:25;100227.34;;;31.10;42.74
63773;BME280;49919;53.612;55.898;2022-07-12T05:06:56;100236.22;;;31.19;42.58
63773;BME280;49919;53.612;55.898;2022-07-12T05:08:26;100240.56;;;31.20;42.36
63773;BME280;49919;53.612;55.898;2022-07-12T05:09:57;100239.16;;;31.26;42.18
63773;BME280;49919;53.612;55.898;2022-07-12T05:11:28;100235.97;;;31.24;42.09
63773;BME280;49919;53.612;55.898;2022-07-12T05:12:59;100231.34;;;31.28;42.55
63773;BME280;49919;53.612;55.898;2022-07-12T05:14:29;100233.94;;;31.37;42.29
63773;BME280;49919;53.612;55.898;2022-07-12T05:16:00;100238.53;;;31.33;42.44
63773;BME280;49919;53.612;55.898;2022-07-12T05:17:30;100239.34;;;31.33;42.22
63773;BME280;49919;53.612;55.898;2022-07-12T05:19:01;100228.59;;;31.44;42.25
63773;BME280;49919;53.612;55.898;2022-07-12T05:20:32;100228.13;;;31.58;42.29
63773;BME280;49919;53.612;55.898;2022-07-12T05:22:03;100228.41;;;31.68;41.61
63773;BME280;49919;53.612;55.898;2022-07-12T05:23:34;100228.22;;;31.77;41.75
63773;BME280;49919;53.612;55.898;2022-07-12T05:25:05;100224.66;;;31.77;41.67
63773;BME280;49919;53.612;55.898;2022-07-12T05:26:36;100229.59;;;31.87;41.59
63773;BME280;49919;53.612;55.898;2022-07-12T05:28:07;100226.03;;;32.06;41.44
63773;BME280;49919;53.612;55.898;2022-07-12T05:29:37;100217.59;;;32.14;41.29
63773;BME280;49919;53.612;55.898;2022-07-12T05:31:09;100228.06;;;32.24;40.92
63773;BME280;49919;53.612;55.898;2022-07-12T05:32:39;100229.34;;;32.30;41.13
63773;BME280;49919;53.612;55.898;2022-07-12T05:34:10;100229.84;;;32.36;40.74
63773;BME280;49919;53.612;55.898;2022-07-12T05:35:41;100227.97;;;32.40;40.81
63773;BME280;49919;53.612;55.898;2022-07-12T05:37:12;100225.41;;;32.51;40.74
63773;BME280;49919;53.612;55.898;2022-07-12T05:38:42;100229.91;;;32.59;40.69
63773;BME280;49919;53.612;55.898;2022-07-12T05:40:13;100227.22;;;32.62;40.30
63773;BME280;49919;53.612;55.898;2022-07-12T05:41:44;100231.28;;;32.68;40.17
63773;BME280;49919;53.612;55.898;2022-07-12T05:43:15;100224.53;;;32.85;40.28
63773;BME280;49919;53.612;55.898;2022-07-12T05:44:46;100229.59;;;33.06;39.59
63773;BME280;49919;53.612;55.898;2022-07-12T05:46:17;100238.09;;;33.20;39.38
63773;BME280;49919;53.612;55.898;2022-07-12T05:47:47;100236.72;;;33.30;39.40
63773;BME280;49919;53.612;55.898;2022-07-12T05:49:18;100247.38;;;33.31;39.07
63773;BME280;49919;53.612;55.898;2022-07-12T05:50:49;100234.59;;;33.23;39.34
63773;BME280;49919;53.612;55.898;2022-07-12T05:52:19;100240.22;;;33.27;39.22
63773;BME280;49919;53.612;55.898;2022-07-12T05:54:08;100241.88;;;33.31;38.99
63773;BME280;49919;53.612;55.898;2022-07-12T05:55:40;100239.19;;;33.38;38.94
63773;BME280;49919;53.612;55.898;2022-07-12T05:57:12;100245.22;;;33.44;38.80
63773;BME280;49919;53.612;55.898;2022-07-12T05:58:42;100242.09;;;33.46;38.62
63773;BME280;49919;53.612;55.898;2022-07-12T06:00:13;100244.47;;;33.47;38.44
63773;BME280;49919;53.612;55.898;2022-07-12T06:01:44;100230.75;;;33.51;38.47
63773;BME280;49919;53.612;55.898;2022-07-12T06:03:14;100238.91;;;33.70;38.45
63773;BME280;49919;53.612;55.898;2022-07-12T06:04:45;100243.72;;;33.77;38.01
63773;BME280;49919;53.612;55.898;2022-07-12T06:06:16;100238.75;;;33.86;38.28
63773;BME280;49919;53.612;55.898;2022-07-12T06:07:47;100241.31;;;34.01;37.97
63773;BME280;49919;53.612;55.898;2022-07-12T06:09:18;100244.59;;;34.11;37.56
63773;BME280;49919;53.612;55.898;2022-07-12T06:10:48;100241.41;;;34.09;37.46
63773;BME280;49919;53.612;55.898;2022-07-12T06:12:19;100241.84;;;34.11;36.89
63773;BME280;49919;53.612;55.898;2022-07-12T06:13:50;100242.63;;;34.11;36.90
63773;BME280;49919;53.612;55.898;2022-07-12T06:15:21;100240.34;;;34.17;36.80
63773;BME280;49919;53.612;55.898;2022-07-12T06:16:52;100233.09;;;34.35;36.61
63773;BME280;49919;53.612;55.898;2022-07-12T06:18:22;100235.63;;;34.51;35.89
63773;BME280;49919;53.612;55.898;2022-07-12T06:19:53;100236.63;;;34.69;35.16
63773;BME280;49919;53.612;55.898;2022-07-12T06:21:24;100232.56;;;34.96;34.89
63773;BME280;49919;53.612;55.898;2022-07-12T06:22:55;100243.34;;;35.12;34.67
63773;BME280;49919;53.612;55.898;2022-07-12T06:24:25;100238.69;;;35.20;34.64
63773;BME280;49919;53.612;55.898;2022-07-12T06:25:56;100243.47;;;35.23;34.40
63773;BME280;49919;53.612;55.898;2022-07-12T06:27:27;100236.78;;;35.27;34.28
63773;BME280;49919;53.612;55.898;2022-07-12T06:28:58;100234.84;;;35.31;34.27
63773;BME280;49919;53.612;55.898;2022-07-12T06:30:28;100238.47;;;35.39;33.99
63773;BME280;49919;53.612;55.898;2022-07-12T06:31:59;100237.34;;;35.44;33.19
63773;BME280;49919;53.612;55.898;2022-07-12T06:33:30;100235.78;;;35.46;33.49
63773;BME280;49919;53.612;55.898;2022-07-12T06:35:01;100232.97;;;35.43;33.65
63773;BME280;49919;53.612;55.898;2022-07-12T06:36:32;100238.47;;;35.39;33.33
63773;BME280;49919;53.612;55.898;2022-07-12T06:38:02;100239.59;;;35.31;33.53
63773;BME280;49919;53.612;55.898;2022-07-12T06:39:33;100232.59;;;35.44;33.56
63773;BME280;49919;53.612;55.898;2022-07-12T06:41:04;100244.56;;;35.62;33.62
63773;BME280;49919;53.612;55.898;2022-07-12T06:42:35;100238.41;;;35.83;33.29
63773;BME280;49919;53.612;55.898;2022-07-12T06:44:05;100238.44;;;35.97;33.59
63773;BME280;49919;53.612;55.898;2022-07-12T06:45:36;100238.91;;;36.06;33.18
63773;BME280;49919;53.612;55.898;2022-07-12T06:47:07;100230.63;;;36.14;33.46
63773;BME280;49919;53.612;55.898;2022-07-12T06:48:38;100235.47;;;36.27;32.85
63773;BME280;49919;53.612;55.898;2022-07-12T06:50:08;100237.06;;;36.32;32.60
63773;BME280;49919;53.612;55.898;2022-07-12T06:51:39;100237.47;;;36.41;32.02
63773;BME280;49919;53.612;55.898;2022-07-12T06:53:13;100244.19;;;36.44;31.71
63773;BME280;49919;53.612;55.898;2022-07-12T06:54:44;100238.63;;;36.26;31.63
63773;BME280;49919;53.612;55.898;2022-07-12T06:56:15;100244.50;;;36.21;31.99
63773;BME280;49919;53.612;55.898;2022-07-12T06:57:45;100241.28;;;36.08;31.66
63773;BME280;49919;53.612;55.898;2022-07-12T06:59:16;100239.69;;;36.07;31.94
63773;BME280;49919;53.612;55.898;2022-07-12T07:00:47;100235.38;;;36.17;32.16
63773;BME280;49919;53.612;55.898;2022-07-12T07:02:18;100237.44;;;36.30;31.38
63773;BME280;49919;53.612;55.898;2022-07-12T07:03:48;100237.47;;;36.37;31.09
63773;BME280;49919;53.612;55.898;2022-07-12T07:05:19;100241.06;;;36.49;30.85
63773;BME280;49919;53.612;55.898;2022-07-12T07:06:50;100237.13;;;36.60;30.51
63773;BME280;49919;53.612;55.898;2022-07-12T07:08:21;100237.91;;;36.64;29.86
63773;BME280;49919;53.612;55.898;2022-07-12T07:09:51;100233.56;;;36.56;30.54
63773;BME280;49919;53.612;55.898;2022-07-12T07:11:22;100234.75;;;36.62;30.74
63773;BME280;49919;53.612;55.898;2022-07-12T07:12:53;100241.88;;;36.63;30.11
63773;BME280;49919;53.612;55.898;2022-07-12T07:14:24;100236.78;;;36.72;30.09
63773;BME280;49919;53.612;55.898;2022-07-12T07:15:54;100234.84;;;36.80;30.04
63773;BME280;49919;53.612;55.898;2022-07-12T07:17:25;100239.94;;;36.82;30.25
63773;BME280;49919;53.612;55.898;2022-07-12T07:18:56;100238.41;;;36.95;30.03
63773;BME280;49919;53.612;55.898;2022-07-12T07:20:27;100237.19;;;37.03;30.71
63773;BME280;49919;53.612;55.898;2022-07-12T07:21:58;100241.19;;;37.16;30.36
63773;BME280;49919;53.612;55.898;2022-07-12T07:23:29;100242.81;;;37.21;30.41
63773;BME280;49919;53.612;55.898;2022-07-12T07:25:00;100233.69;;;37.20;30.14
63773;BME280;49919;53.612;55.898;2022-07-12T07:26:30;100227.72;;;37.11;30.73
63773;BME280;49919;53.612;55.898;2022-07-12T07:28:03;100232.84;;;37.13;30.63
63773;BME280;49919;53.612;55.898;2022-07-12T07:29:33;100237.22;;;37.24;30.66
63773;BME280;49919;53.612;55.898;2022-07-12T07:31:23;100230.09;;;37.27;30.62
63773;BME280;49919;53.612;55.898;2022-07-12T07:32:53;100230.88;;;37.17;30.60
63773;BME280;49919;53.612;55.898;2022-07-12T07:34:24;100236.81;;;37.15;30.56
63773;BME280;49919;53.612;55.898;2022-07-12T07:35:55;100224.56;;;37.30;30.64
63773;BME280;49919;53.612;55.898;2022-07-12T07:37:26;100237.59;;;37.51;30.73
63773;BME280;49919;53.612;55.898;2022-07-12T07:38:57;100226.91;;;37.50;29.81
63773;BME280;49919;53.612;55.898;2022-07-12T07:40:31;100223.75;;;37.40;30.53
63773;BME280;49919;53.612;55.898;2022-07-12T07:42:01;100228.13;;;37.42;30.41
63773;BME280;49919;53.612;55.898;2022-07-12T07:43:32;100226.50;;;37.55;30.33
63773;BME280;49919;53.612;55.898;2022-07-12T07:45:04;100223.31;;;37.78;30.27
63773;BME280;49919;53.612;55.898;2022-07-12T07:46:36;100226.00;;;38.02;30.17
63773;BME280;49919;53.612;55.898;2022-07-12T07:48:07;100222.38;;;38.20;29.92
63773;BME280;49919;53.612;55.898;2022-07-12T07:49:38;100217.53;;;38.34;28.81